Time;durP1;ratioP1;P1;durP2;ratioP2;P2;SDS_P1;SDS_P2;PMS_P1;PMS_P2;Temp;Humidity;BMP_temperature;BMP_pressure;BME280_temperature;BME280_humidity;BME280_pressure;Samples;Min_cycle;Max_cycle;Signal;HPM_P1;HPM_P2
2021/10/30 00:02:17;;;;;;;4.60;4.50;;;16.00;92.90;;;;;;6230465;23;20378;-91
2021/10/30 00:04:55;;;;;;;;;;;;;;;;;;;;;
2021/10/30 00:07:28;;;;;;;6.40;5.90;;;15.50;94.80;;;;;;6233837;23;20362;-91
2021/10/30 00:09:59;;;;;;;5.30;5.00;;;15.50;91.10;;;;;;6232911;23;20477;-90
2021/10/30 00:12:29;;;;;;;5.03;4.73;;;19.70;94.70;;;;;;6233341;23;20371;-91
2021/10/30 00:14:59;;;;;;;5.23;4.93;;;17.50;95.30;;;;;;6209627;23;20387;-90
2021/10/30 00:17:37;;;;;;;5.17;4.87;;;17.00;92.90;;;;;;6209963;23;20362;-90
2021/10/30 00:20:37;;;;;;;6.73;4.40;;;15.50;99.10;;;;;;6237490;23;20398;-92
2021/10/30 00:23:02;;;;;;;4.97;4.57;;;15.70;90.90;;;;;;6228309;23;20440;-92
2021/10/30 00:25:42;;;;;;;5.13;4.63;;;17.20;95.80;;;;;;6232847;23;20490;-92
2021/10/30 00:28:23;;;;;;;6.23;5.83;;;15.50;90.20;;;;;;6234684;23;20135;-89
2021/10/30 00:30:57;;;;;;;5.87;5.27;;;15.20;90.20;;;;;;6233233;23;20388;-90
2021/10/30 00:33:35;;;;;;;6.30;5.80;;;15.80;94.60;;;;;;6237247;23;20741;-90
2021/10/30 00:36:05;;;;;;;5.80;5.50;;;15.50;93.80;;;;;;6236544;23;20365;-91
2021/10/30 00:38:31;;;;;;;5.60;5.20;;;14.30;90.90;;;;;;6232253;23;20417;-92
2021/10/30 00:41:03;;;;;;;5.17;4.87;;;14.50;91.60;;;;;;6234453;23;20397;-92
2021/10/30 00:43:35;;;;;;;5.17;4.97;;;17.30;92.60;;;;;;6234808;23;20961;-91
2021/10/30 00:46:03;;;;;;;6.10;5.70;;;18.30;93.90;;;;;;6210951;23;20453;-91
2021/10/30 00:48:34;;;;;;;5.30;5.10;;;14.90;91.40;;;;;;6205623;23;20435;-91
2021/10/30 00:51:09;;;;;;;5.30;5.00;;;14.70;91.30;;;;;;6203665;23;20387;-90
2021/10/30 00:53:46;;;;;;;5.73;5.37;;;17.50;93.20;;;;;;6181076;23;20387;-91
2021/10/30 00:56:16;;;;;;;5.90;5.50;;;19.10;94.30;;;;;;6205410;23;20387;-92
2021/10/30 00:58:53;;;;;;;5.00;4.77;;;14.80;89.20;;;;;;6204405;23;20414;-91
2021/10/30 01:01:19;;;;;;;5.27;4.80;;;15.00;95.30;;;;;;6209245;23;20445;-92
2021/10/30 01:03:51;;;;;;;5.67;5.20;;;15.30;92.70;;;;;;6206454;23;20843;-92
2021/10/30 01:06:22;;;;;;;6.70;6.27;;;14.70;88.90;;;;;;6205790;23;20434;-92
2021/10/30 01:08:57;;;;;;;6.10;5.50;;;;;;;;;;6205599;23;20390;-91
2021/10/30 01:11:56;;;;;;;5.67;5.27;;;14.90;88.40;;;;;;6181386;23;20391;-92
2021/10/30 01:14:28;;;;;;;6.37;5.80;;;14.70;90.90;;;;;;6229611;23;20387;-91
2021/10/30 01:17:04;;;;;;;5.87;5.33;;;14.70;89.20;;;;;;6203677;23;20400;-91
2021/10/30 01:19:39;;;;;;;5.30;5.00;;;15.30;90.60;;;;;;6205259;23;20387;-92
2021/10/30 01:22:07;;;;;;;5.77;5.13;;;14.40;96.70;;;;;;6203829;23;20375;-93
2021/10/30 01:24:33;;;;;;;5.60;5.20;;;17.70;96.20;;;;;;6200743;23;20503;-92
2021/10/30 01:27:11;;;;;;;5.30;5.00;;;14.20;90.00;;;;;;6202036;23;20376;-91
2021/10/30 01:30:02;;;;;;;;;;;;;;;;;;;;;
2021/10/30 01:32:33;;;;;;;6.23;5.67;;;;;;;;;;6203737;23;20391;-92
2021/10/30 01:35:00;;;;;;;5.00;4.80;;;14.10;98.70;;;;;;6203673;23;20433;-92
2021/10/30 01:37:30;;;;;;;5.50;5.10;;;16.50;93.70;;;;;;6203158;23;20419;-91
2021/10/30 01:39:59;;;;;;;5.43;5.03;;;13.50;91.30;;;;;;6206357;23;20384;-90
2021/10/30 01:42:28;;;;;;;10.80;5.13;;;14.20;98.90;;;;;;6206368;23;20383;-91
2021/10/30 01:45:02;;;;;;;5.40;5.00;;;14.40;90.00;;;;;;6210582;23;20447;-90
2021/10/30 01:47:30;;;;;;;5.60;5.20;;;14.30;92.10;;;;;;6205209;23;20401;-91
2021/10/30 01:49:59;;;;;;;5.13;4.73;;;14.40;94.00;;;;;;6208596;23;20406;-90
2021/10/30 01:52:29;;;;;;;4.67;4.47;;;14.30;89.30;;;;;;6207641;23;20379;-93
2021/10/30 01:54:56;;;;;;;5.30;5.00;;;14.40;94.50;;;;;;6208144;23;20403;-93
2021/10/30 01:57:29;;;;;;;5.00;4.80;;;14.30;98.70;;;;;;6207239;23;20391;-92
2021/10/30 01:59:58;;;;;;;4.93;4.73;;;17.00;95.50;;;;;;6183731;23;20390;-90
2021/10/30 02:02:24;;;;;;;4.93;4.60;;;18.40;95.80;;;;;;6204924;23;20376;-92
2021/10/30 02:04:55;;;;;;;5.00;4.70;;;;;;;;;;6204698;23;20443;-91
2021/10/30 02:07:21;;;;;;;4.30;4.13;;;14.30;89.60;;;;;;6205299;23;20422;-91
2021/10/30 02:10:07;;;;;;;3.70;3.60;;;14.50;88.60;;;;;;6208929;23;20395;-91
2021/10/30 02:12:38;;;;;;;4.67;4.47;;;14.50;89.30;;;;;;6206351;23;20376;-90
2021/10/30 02:15:08;;;;;;;4.07;3.87;;;14.40;98.10;;;;;;6205444;23;20378;-92
2021/10/30 02:17:43;;;;;;;6.20;5.70;;;;;;;;;;6206119;23;20380;-91
2021/10/30 02:20:14;;;;;;;4.07;3.93;;;14.40;89.10;;;;;;6207468;23;20348;-92
2021/10/30 02:22:52;;;;;;;4.77;4.37;;;17.00;93.20;;;;;;6206989;23;20694;-92
2021/10/30 02:25:21;;;;;;;4.17;3.93;;;;;;;;;;6207531;23;20418;-92
2021/10/30 02:27:49;;;;;;;4.60;4.40;;;14.30;89.80;;;;;;6204618;23;20391;-92
2021/10/30 02:30:39;;;;;;;4.13;4.03;;;14.70;98.40;;;;;;6208285;23;20438;-91
2021/10/30 02:33:14;;;;;;;4.53;4.20;;;19.80;94.70;;;;;;6201575;23;20401;-91
2021/10/30 02:35:41;;;;;;;4.13;3.97;;;13.30;90.30;;;;;;6205370;23;20399;-91
2021/10/30 02:38:11;;;;;;;3.57;3.47;;;14.50;87.90;;;;;;6184002;23;20387;-90
2021/10/30 02:40:39;;;;;;;4.40;4.00;;;16.90;90.80;;;;;;6204616;23;20410;-92
2021/10/30 02:43:05;;;;;;;3.80;3.60;;;17.00;90.90;;;;;;6181277;23;20438;-90
2021/10/30 02:45:39;;;;;;;3.97;3.87;;;15.80;93.70;;;;;;6204712;23;20502;-92
2021/10/30 02:48:10;;;;;;;3.73;3.63;;;14.50;87.40;;;;;;6204097;23;20422;-91
2021/10/30 02:50:45;;;;;;;4.23;4.03;;;14.60;86.90;;;;;;6204597;23;20442;-91
2021/10/30 02:53:15;;;;;;;4.33;4.10;;;;;;;;;;6207049;23;20378;-91
2021/10/30 02:55:43;;;;;;;4.47;4.07;;;;;;;;;;6181654;23;20392;-92
2021/10/30 02:59:00;;;;;;;;;;;;;;;;;;;;;
2021/10/30 03:01:30;;;;;;;4.23;4.13;;;;;;;;;;6109981;23;20402;-90
2021/10/30 03:03:56;;;;;;;3.40;3.30;;;;;;;;;;6195676;23;20391;-91
2021/10/30 03:06:36;;;;;;;;;;;;;;;;;;;;;
2021/10/30 03:09:03;;;;;;;3.60;3.50;;;;;;;;;;6201123;23;20391;-92
2021/10/30 03:11:36;;;;;;;4.67;4.47;;;14.60;86.70;;;;;;6204932;23;20383;-91
2021/10/30 03:14:16;;;;;;;;;;;;;;;;;;;;;
2021/10/30 03:16:57;;;;;;;4.33;4.20;;;14.50;87.30;;;;;;6209182;23;20379;-92
2021/10/30 03:19:30;;;;;;;4.50;4.30;;;18.60;93.10;;;;;;6209904;23;20376;-92
2021/10/30 03:22:03;;;;;;;4.67;4.47;;;13.60;89.20;;;;;;6204640;23;20395;-92
2021/10/30 03:24:32;;;;;;;4.90;4.30;;;15.10;93.30;;;;;;6207065;23;20449;-92
2021/10/30 03:27:03;;;;;;;3.80;3.80;;;16.60;93.80;;;;;;6207371;23;20389;-91
2021/10/30 03:29:37;;;;;;;3.77;3.67;;;14.30;95.60;;;;;;6206532;23;20383;-92
2021/10/30 03:32:03;;;;;;;3.87;3.67;;;14.90;91.50;;;;;;6204734;23;20368;-91
2021/10/30 03:37:43;;;;;;;4.83;4.63;;;13.20;85.30;;;;;;6208695;23;20379;-91
2021/10/30 03:40:12;;;;;;;4.80;4.50;;;14.30;96.90;;;;;;6209662;23;20796;-90
2021/10/30 03:42:47;;;;;;;3.70;3.60;;;16.50;91.60;;;;;;6206838;23;20451;-90
2021/10/30 03:45:31;;;;;;;4.73;4.50;;;17.20;91.60;;;;;;6205699;23;20446;-91
2021/10/30 03:48:26;;;;;;;4.00;3.90;;;13.80;92.70;;;;;;6204995;23;20368;-90
2021/10/30 03:50:52;;;;;;;4.70;4.50;;;;;;;;;;6196087;23;20716;-91
2021/10/30 03:53:21;;;;;;;3.73;3.63;;;14.40;86.40;;;;;;6203915;23;20372;-91
2021/10/30 03:55:55;;;;;;;3.77;3.57;;;14.50;86.00;;;;;;6206983;23;20414;-91
2021/10/30 03:58:38;;;;;;;4.80;4.37;;;15.40;87.90;;;;;;6208470;23;20398;-90
2021/10/30 04:01:11;;;;;;;4.43;4.20;;;14.80;97.10;;;;;;6208493;23;20379;-92
2021/10/30 04:03:47;;;;;;;4.20;4.10;;;16.90;92.60;;;;;;6203326;23;20439;-92
2021/10/30 04:06:33;;;;;;;4.33;3.87;;;14.30;92.40;;;;;;6182124;23;20445;-90
2021/10/30 04:09:11;;;;;;;4.90;4.63;;;15.00;90.00;;;;;;6203101;23;20367;-92
2021/10/30 04:11:43;;;;;;;5.70;5.40;;;14.80;99.60;;;;;;6205045;23;20399;-90
2021/10/30 04:14:36;;;;;;;5.23;4.90;;;15.90;91.70;;;;;;6208999;23;20365;-89
2021/10/30 04:17:15;;;;;;;5.00;4.70;;;17.10;95.10;;;;;;6209074;23;20371;-92
2021/10/30 04:19:55;;;;;;;5.87;5.57;;;15.40;95.50;;;;;;6210690;23;20934;-90
2021/10/30 04:22:42;;;;;;;5.30;4.90;;;15.60;96.50;;;;;;6209592;23;20430;-90
2021/10/30 04:25:16;;;;;;;4.57;4.27;;;13.60;99.90;;;;;;6209208;23;20431;-91
2021/10/30 04:27:50;;;;;;;5.63;5.03;;;13.90;99.70;;;;;;6183729;23;20450;-91
2021/10/30 04:30:33;;;;;;;5.60;5.20;;;13.80;99.80;;;;;;6210652;23;20402;-91
2021/10/30 04:33:06;;;;;;;7.20;5.10;;;13.30;99.90;;;;;;6210167;23;20374;-90
2021/10/30 04:36:02;;;;;;;6.27;5.73;;;13.00;99.90;;;;;;6210238;23;20379;-91
2021/10/30 04:38:47;;;;;;;5.63;5.33;;;13.00;99.90;;;;;;6207996;23;20402;-90
2021/10/30 04:41:21;;;;;;;5.40;4.90;;;15.00;99.90;;;;;;6208235;23;20462;-90
2021/10/30 04:43:56;;;;;;;5.77;5.33;;;16.10;99.90;;;;;;6204643;23;20375;-90
2021/10/30 04:46:37;;;;;;;6.20;5.63;;;12.90;99.90;;;;;;6206145;23;20441;-90
2021/10/30 04:49:08;;;;;;;5.97;5.67;;;12.90;99.90;;;;;;6202911;23;20375;-91
2021/10/30 04:51:34;;;;;;;8.30;6.57;;;;;;;;;;6197918;23;20478;-90
2021/10/30 04:54:05;;;;;;;6.63;6.00;;;12.80;99.90;;;;;;6202480;23;20390;-90
2021/10/30 04:56:37;;;;;;;6.23;5.50;;;14.10;99.90;;;;;;6203655;23;20387;-90
2021/10/30 04:59:05;;;;;;;6.20;5.70;;;;;;;;;;6206546;23;20380;-90
2021/10/30 05:01:37;;;;;;;6.43;6.03;;;12.60;99.90;;;;;;6200016;23;20379;-90
2021/10/30 05:04:15;;;;;;;5.50;5.10;;;12.20;99.90;;;;;;6227289;23;20400;-90
2021/10/30 05:06:45;;;;;;;5.93;5.43;;;12.40;99.90;;;;;;6204844;23;20395;-89
2021/10/30 05:09:13;;;;;;;5.97;5.67;;;12.40;99.90;;;;;;6207175;23;20668;-91
2021/10/30 05:11:40;;;;;;;6.97;5.97;;;12.70;99.90;;;;;;6204963;23;20375;-90
2021/10/30 05:14:08;;;;;;;6.77;6.03;;;;;;;;;;6199989;23;20394;-91
2021/10/30 05:16:40;;;;;;;7.50;6.07;;;12.40;99.90;;;;;;6203047;23;20394;-91
2021/10/30 05:19:08;;;;;;;8.30;5.80;;;;;;;;;;6202828;23;20380;-89
2021/10/30 05:21:34;;;;;;;5.90;5.50;;;;;;;;;;6204398;23;20375;-89
2021/10/30 05:24:32;;;;;;;6.20;5.77;;;12.20;99.90;;;;;;6207071;23;20384;-90
2021/10/30 05:27:06;;;;;;;6.77;5.87;;;12.40;99.90;;;;;;6185367;23;20387;-91
2021/10/30 05:29:38;;;;;;;6.70;6.30;;;13.20;99.90;;;;;;6202812;23;20409;-90
2021/10/30 05:32:06;;;;;;;6.20;5.80;;;12.20;99.90;;;;;;6203437;23;20394;-88
2021/10/30 05:34:33;;;;;;;7.13;6.60;;;12.20;99.90;;;;;;6206972;23;20367;-91
2021/10/30 05:36:59;;;;;;;6.47;6.03;;;;;;;;;;6202466;23;20384;-91
2021/10/30 05:39:35;;;;;;;7.50;5.93;;;12.20;99.90;;;;;;6204460;23;20383;-91
2021/10/30 05:42:32;;;;;;;6.47;6.00;;;12.20;99.90;;;;;;6206838;23;20387;-90
2021/10/30 05:45:05;;;;;;;6.57;6.03;;;15.20;99.90;;;;;;6216105;23;20449;-90
2021/10/30 05:47:41;;;;;;;5.40;5.10;;;11.40;99.90;;;;;;6212179;23;20414;-88
2021/10/30 05:50:10;;;;;;;5.23;5.03;;;12.50;99.90;;;;;;6232083;23;20397;-90
2021/10/30 05:52:39;;;;;;;5.63;5.27;;;;;;;;;;6237290;23;20386;-90
2021/10/30 05:55:06;;;;;;;5.37;5.10;;;12.40;99.90;;;;;;6237386;23;20448;-90
2021/10/30 05:57:40;;;;;;;5.10;4.90;;;15.30;99.90;;;;;;6239080;23;20390;-90
2021/10/30 06:00:09;;;;;;;5.43;5.13;;;15.70;99.90;;;;;;6239739;23;20363;-90
2021/10/30 06:02:46;;;;;;;4.63;4.43;;;12.70;99.90;;;;;;6238601;23;20401;-90
2021/10/30 06:05:40;;;;;;;;;;;;;;;;;;;;;
2021/10/30 06:08:09;;;;;;;5.33;5.13;;;;;;;;;;6219603;23;20394;-89
2021/10/30 06:10:37;;;;;;;5.80;5.13;;;12.50;99.90;;;;;;6234921;23;20370;-90
2021/10/30 06:13:06;;;;;;;6.20;5.67;;;14.10;99.90;;;;;;6227671;23;20428;-91
2021/10/30 06:15:38;;;;;;;6.13;5.60;;;12.70;99.90;;;;;;6229103;23;20375;-92
2021/10/30 06:18:06;;;;;;;6.00;5.70;;;;;;;;;;6203148;23;20390;-89
2021/10/30 06:20:54;;;;;;;6.10;5.60;;;12.70;99.90;;;;;;6226355;23;20374;-91
2021/10/30 06:23:25;;;;;;;6.83;6.43;;;12.70;99.90;;;;;;6229035;23;20382;-90
2021/10/30 06:25:58;;;;;;;7.60;6.83;;;;;;;;;;6227941;23;20486;-91
2021/10/30 06:28:24;;;;;;;6.03;5.57;;;;;;;;;;6225403;23;20371;-90
2021/10/30 06:30:50;;;;;;;5.40;5.03;;;;;;;;;;6225751;23;20401;-89
2021/10/30 06:33:16;;;;;;;5.20;4.70;;;;;;;;;;6225890;23;20382;-90
2021/10/30 06:35:47;;;;;;;4.20;4.00;;;12.70;99.90;;;;;;6232162;23;20386;-90
2021/10/30 06:38:15;;;;;;;4.60;4.40;;;;;;;;;;6227593;23;20371;-89
2021/10/30 06:40:48;;;;;;;3.87;3.50;;;12.70;99.90;;;;;;6235213;23;20373;-90
2021/10/30 06:43:14;;;;;;;4.57;4.27;;;12.30;99.90;;;;;;6227981;23;20371;-90
2021/10/30 06:45:40;;;;;;;4.40;4.30;;;;;;;;;;6232427;23;20500;-89
2021/10/30 06:48:37;;;;;;;5.93;4.60;;;12.50;99.90;;;;;;6237867;23;20148;-90
2021/10/30 06:51:15;;;;;;;5.17;4.87;;;12.70;99.90;;;;;;6235859;23;20439;-90
2021/10/30 06:53:45;;;;;;;4.30;4.00;;;12.60;99.90;;;;;;6233330;23;20378;-91
2021/10/30 06:56:27;;;;;;;4.00;3.90;;;14.30;99.90;;;;;;6231648;23;20498;-90
2021/10/30 06:59:03;;;;;;;6.60;6.20;;;15.60;99.90;;;;;;6255167;23;20379;-91
2021/10/30 07:01:35;;;;;;;4.53;4.43;;;;;;;;;;6224579;23;20377;-93
2021/10/30 07:04:07;;;;;;;4.60;4.40;;;12.60;99.90;;;;;;6232320;23;20377;-90
2021/10/30 07:06:40;;;;;;;4.80;4.43;;;11.30;99.90;;;;;;6231390;23;20390;-92
2021/10/30 07:09:15;;;;;;;5.07;4.77;;;12.60;99.90;;;;;;6234975;23;20371;-90
2021/10/30 07:11:46;;;;;;;4.80;4.53;;;12.40;99.90;;;;;;6231378;23;20382;-89
2021/10/30 07:14:26;;;;;;;;;;;;;;;;;;;;;
2021/10/30 07:17:10;;;;;;;5.30;5.03;;;;;;;;;;6233840;23;20375;-90
2021/10/30 07:20:04;;;;;;;5.43;5.03;;;12.40;99.90;;;;;;6232811;23;20367;-90
2021/10/30 07:22:54;;;;;;;5.33;4.83;;;12.50;99.90;;;;;;6214242;23;20394;-84
2021/10/30 07:25:23;;;;;;;6.30;5.80;;;12.50;99.90;;;;;;6236441;23;20437;-91
2021/10/30 07:30:59;;;;;;;5.53;5.03;;;11.40;99.90;;;;;;6233408;23;20382;-91
2021/10/30 07:33:31;;;;;;;5.43;5.23;;;12.40;99.90;;;;;;6230397;23;20413;-91
2021/10/30 07:36:08;;;;;;;6.23;5.80;;;12.90;99.90;;;;;;6229156;23;20379;-92
2021/10/30 07:38:41;;;;;;;4.97;4.67;;;12.60;99.90;;;;;;6234104;23;20358;-88
2021/10/30 07:41:07;;;;;;;5.73;5.20;;;14.60;99.90;;;;;;6233554;23;20344;-90
2021/10/30 07:43:54;;;;;;;;;;;;;;;;;;;;;
2021/10/30 07:46:25;;;;;;;5.63;5.13;;;12.50;99.90;;;;;;6260010;23;20473;-90
2021/10/30 07:49:05;;;;;;;6.30;5.80;;;12.40;99.90;;;;;;6206143;23;20848;-90
2021/10/30 07:51:40;;;;;;;4.67;4.47;;;13.00;99.90;;;;;;6255075;23;20385;-89
2021/10/30 07:54:06;;;;;;;6.33;5.70;;;;;;;;;;6225074;23;20829;-89
2021/10/30 07:56:33;;;;;;;5.57;5.17;;;12.60;99.90;;;;;;6225845;23;20770;-89
2021/10/30 07:59:05;;;;;;;5.33;5.03;;;12.50;99.90;;;;;;6252455;23;20373;-89
2021/10/30 08:01:31;;;;;;;6.03;5.60;;;;;;;;;;6230167;23;20396;-90
2021/10/30 08:04:02;;;;;;;5.03;4.80;;;12.70;99.90;;;;;;6231752;23;20802;-90
2021/10/30 08:06:34;;;;;;;5.57;5.17;;;13.20;99.90;;;;;;6255788;23;20504;-89
2021/10/30 08:09:14;;;;;;;4.40;4.20;;;14.30;99.90;;;;;;6229521;23;20385;-88
2021/10/30 08:11:43;;;;;;;5.50;4.87;;;;;;;;;;6254354;23;20840;-90
2021/10/30 08:14:09;;;;;;;6.60;5.80;;;;;;;;;;6257985;23;20357;-89
2021/10/30 08:16:51;;;;;;;5.93;5.50;;;12.80;99.90;;;;;;6255829;23;20383;-90
2021/10/30 08:19:17;;;;;;;4.30;4.10;;;;;;;;;;6258750;23;20829;-89
2021/10/30 08:21:55;;;;;;;5.27;4.40;;;12.90;99.90;;;;;;6260982;23;20389;-90
2021/10/30 08:24:23;;;;;;;5.40;5.03;;;;;;;;;;6233087;23;20439;-90
2021/10/30 08:26:50;;;;;;;4.20;4.10;;;12.90;99.90;;;;;;6261442;23;20388;-88
2021/10/30 08:29:16;;;;;;;4.50;4.20;;;;;;;;;;6258821;23;20370;-88
2021/10/30 08:31:42;;;;;;;4.23;4.13;;;12.80;99.90;;;;;;6257885;23;20373;-90
2021/10/30 08:34:11;;;;;;;6.87;5.43;;;14.30;99.90;;;;;;6232134;23;20381;-90
2021/10/30 08:36:43;;;;;;;5.00;4.60;;;15.60;99.90;;;;;;6212175;23;20147;-89
2021/10/30 08:39:20;;;;;;;4.60;4.40;;;14.60;99.90;;;;;;6237706;23;20377;-91
2021/10/30 08:41:46;;;;;;;4.50;4.20;;;;;;;;;;6240513;23;20416;-86
2021/10/30 08:44:22;;;;;;;4.17;4.07;;;10.80;99.90;;;;;;6259791;23;20370;-90
2021/10/30 08:47:04;;;;;;;3.83;3.80;;;14.30;99.90;;;;;;6237359;23;20414;-89
2021/10/30 08:49:46;;;;;;;5.00;4.60;;;12.90;99.90;;;;;;6264321;23;20389;-90
2021/10/30 08:52:12;;;;;;;5.40;4.90;;;;;;;;;;6264205;23;20384;-89
2021/10/30 08:54:41;;;;;;;3.47;3.30;;;13.00;99.90;;;;;;6262563;23;20423;-89
2021/10/30 08:57:08;;;;;;;4.67;4.37;;;;;;;;;;6234662;23;20404;-89
2021/10/30 09:00:22;;;;;;;3.67;3.57;;;13.10;99.90;;;;;;6262011;23;20380;-89
2021/10/30 09:03:09;;;;;;;3.70;3.53;;;13.10;99.90;;;;;;6252810;23;20386;-89
2021/10/30 09:05:49;;;;;;;3.77;3.60;;;13.00;99.90;;;;;;6262653;23;20900;-90
2021/10/30 09:08:25;;;;;;;4.67;4.47;;;13.10;99.90;;;;;;6237817;23;20362;-90
2021/10/30 09:11:01;;;;;;;5.07;4.47;;;13.10;99.90;;;;;;6242086;23;20441;-89
2021/10/30 09:13:35;;;;;;;4.87;3.97;;;13.20;99.90;;;;;;6235058;23;20384;-89
2021/10/30 09:16:20;;;;;;;;;;;;;;;;;;;;;
2021/10/30 09:18:52;;;;;;;4.80;4.47;;;;;;;;;;6263082;23;20369;-90
2021/10/30 09:21:19;;;;;;;3.93;3.83;;;;;;;;;;6237476;23;20385;-88
2021/10/30 09:23:58;;;;;;;5.13;4.83;;;13.30;99.90;;;;;;6238230;23;20403;-88
2021/10/30 09:26:29;;;;;;;4.00;3.80;;;13.50;99.90;;;;;;6265689;23;20417;-89
2021/10/30 09:29:16;;;;;;;4.93;4.70;;;13.30;99.90;;;;;;6239773;23;20390;-89
2021/10/30 09:31:45;;;;;;;4.67;4.27;;;13.30;99.90;;;;;;6207971;23;20387;-89
2021/10/30 09:34:12;;;;;;;4.83;4.60;;;13.50;99.90;;;;;;6265809;23;20400;-88
2021/10/30 09:36:41;;;;;;;4.70;4.03;;;13.20;99.90;;;;;;6233779;23;20389;-88
2021/10/30 09:39:17;;;;;;;4.20;3.87;;;13.40;99.90;;;;;;6233811;23;20412;-87
2021/10/30 09:41:45;;;;;;;5.10;4.70;;;13.20;99.90;;;;;;6235115;23;20846;-89
2021/10/30 09:44:20;;;;;;;5.27;4.97;;;14.80;99.90;;;;;;6260125;23;20366;-89
2021/10/30 09:46:46;;;;;;;4.43;4.13;;;;;;;;;;6233680;23;20487;-90
2021/10/30 09:52:10;;;;;;;4.77;4.00;;;13.20;99.90;;;;;;6240807;23;20478;-91
2021/10/30 09:55:02;;;;;;;4.20;4.00;;;13.30;99.90;;;;;;6239558;23;20424;-94
2021/10/30 09:57:38;;;;;;;4.23;4.03;;;13.30;99.90;;;;;;6237319;23;20513;-88
2021/10/30 10:00:27;;;;;;;;;;;;;;;;;;;;;
2021/10/30 10:03:13;;;;;;;4.77;4.50;;;13.40;99.90;;;;;;6257888;23;20384;-91
2021/10/30 10:05:39;;;;;;;4.77;4.57;;;;;;;;;;6238055;23;20418;-89
2021/10/30 10:08:05;;;;;;;4.83;4.57;;;13.40;99.90;;;;;;6237754;23;20488;-90
2021/10/30 10:10:48;;;;;;;5.33;4.27;;;13.60;99.90;;;;;;6234737;23;20778;-90
2021/10/30 10:13:15;;;;;;;4.73;4.43;;;13.60;99.90;;;;;;6233790;23;20389;-89
2021/10/30 10:15:46;;;;;;;6.00;5.50;;;13.60;99.90;;;;;;6227848;23;20436;-90
2021/10/30 10:18:13;;;;;;;4.77;4.40;;;13.00;99.90;;;;;;6261425;23;20779;-92
2021/10/30 10:20:50;;;;;;;4.73;4.43;;;13.60;99.90;;;;;;6237588;23;20378;-91
2021/10/30 10:23:20;;;;;;;5.20;4.93;;;13.00;99.90;;;;;;6262453;23;20384;-90
2021/10/30 10:25:55;;;;;;;5.50;5.30;;;13.80;99.90;;;;;;6263381;23;20419;-91
2021/10/30 10:28:36;;;;;;;5.00;4.80;;;13.80;99.90;;;;;;6239329;23;20395;-90
2021/10/30 10:31:25;;;;;;;5.23;4.77;;;13.80;99.90;;;;;;6198882;23;20469;-93
2021/10/30 10:34:32;;;;;;;5.77;5.37;;;15.80;99.90;;;;;;6207579;23;20379;-90
2021/10/30 10:37:14;;;;;;;5.97;5.57;;;15.30;99.90;;;;;;6205513;23;20363;-92
2021/10/30 10:40:36;;;;;;;;;;;;;;;;;;;;;
2021/10/30 10:43:29;;;;;;;5.23;4.93;;;13.70;99.90;;;;;;6058687;23;20403;-89
2021/10/30 10:46:40;;;;;;;;;;;;;;;;;;;;;
2021/10/30 10:50:17;;;;;;;5.43;5.13;;;13.60;99.90;;;;;;6037785;23;20387;-92
2021/10/30 10:55:50;;;;;;;4.93;4.73;;;13.30;99.90;;;;;;6050345;23;20384;-90
2021/10/30 10:58:43;;;;;;;5.13;4.90;;;13.30;99.90;;;;;;6153274;23;20384;-93
2021/10/30 11:01:53;;;;;;;5.90;5.40;;;13.30;99.90;;;;;;6195596;23;20391;-94
2021/10/30 11:05:06;;;;;;;5.33;5.03;;;13.20;99.90;;;;;;6203609;23;20399;-94
2021/10/30 11:08:21;;;;;;;5.70;5.30;;;13.20;99.90;;;;;;6057844;23;20404;-90
2021/10/30 11:11:36;;;;;;;7.37;6.87;;;15.90;99.90;;;;;;6012780;23;20400;-91
2021/10/30 11:14:23;;;;;;;5.50;5.10;;;13.00;99.90;;;;;;6056429;23;20483;-92
2021/10/30 11:17:09;;;;;;;6.20;5.90;;;13.10;99.90;;;;;;6050765;23;20379;-91
2021/10/30 11:19:43;;;;;;;4.90;4.60;;;12.90;99.90;;;;;;6058416;23;20764;-94
2021/10/30 11:22:14;;;;;;;5.13;4.93;;;14.10;99.90;;;;;;6150604;23;20379;-89
2021/10/30 11:25:02;;;;;;;6.00;5.60;;;13.20;99.90;;;;;;6189643;23;20894;-88
2021/10/30 11:28:05;;;;;;;5.37;4.97;;;13.00;99.90;;;;;;6167024;23;20498;-88
2021/10/30 11:30:41;;;;;;;6.27;5.60;;;13.00;99.90;;;;;;6168822;23;20431;-93
2021/10/30 11:33:27;;;;;;;6.37;5.87;;;12.90;99.90;;;;;;6174209;23;20398;-91
2021/10/30 11:36:11;;;;;;;6.30;5.80;;;14.50;99.90;;;;;;6178238;23;20426;-91
2021/10/30 11:38:56;;;;;;;6.90;6.20;;;13.00;99.90;;;;;;6177238;23;20709;-92
2021/10/30 11:41:46;;;;;;;5.13;4.93;;;12.90;99.90;;;;;;6204910;23;20413;-91
2021/10/30 11:44:17;;;;;;;6.73;6.10;;;12.90;99.90;;;;;;6158088;23;20419;-92
2021/10/30 11:47:32;;;;;;;6.50;6.10;;;13.20;99.90;;;;;;6165018;23;20403;-91
2021/10/30 11:50:34;;;;;;;6.20;5.80;;;14.70;99.90;;;;;;6179478;23;20399;-90
2021/10/30 11:53:16;;;;;;;6.00;5.60;;;15.20;99.90;;;;;;6181257;23;20409;-89
2021/10/30 11:56:26;;;;;;;4.80;4.60;;;13.00;99.90;;;;;;6140091;23;20402;-90
2021/10/30 12:01:59;;;;;;;5.70;5.30;;;12.90;99.90;;;;;;6203436;22;20453;-91
2021/10/30 12:08:33;;;;;;;7.43;6.83;;;12.90;99.90;;;;;;6141636;23;20391;-93
2021/10/30 12:11:12;;;;;;;6.20;5.87;;;12.80;99.90;;;;;;6145760;23;20881;-92
2021/10/30 12:14:24;;;;;;;6.07;5.53;;;12.90;99.90;;;;;;6143645;23;20394;-93
2021/10/30 12:17:36;;;;;;;7.17;6.50;;;13.50;99.90;;;;;;6142879;23;20409;-92
2021/10/30 12:20:08;;;;;;;5.97;5.67;;;12.90;99.90;;;;;;6060413;23;20386;-92
2021/10/30 12:22:41;;;;;;;7.00;6.50;;;12.90;99.90;;;;;;6138318;23;20407;-90
2021/10/30 12:25:30;;;;;;;5.37;4.97;;;11.60;99.90;;;;;;6142613;23;20484;-91
2021/10/30 12:28:06;;;;;;;5.87;5.40;;;;;;;;;;6145047;23;20373;-90
2021/10/30 12:30:56;;;;;;;6.67;6.17;;;12.90;99.90;;;;;;6115791;23;20875;-91
2021/10/30 12:33:54;;;;;;;6.07;5.63;;;13.00;99.90;;;;;;6118963;23;20440;-94
2021/10/30 12:36:30;;;;;;;;;;;;;;;;;;;;;
2021/10/30 12:39:04;;;;;;;4.97;4.57;;;13.10;99.90;;;;;;6174613;23;20429;-89
2021/10/30 12:41:41;;;;;;;4.97;4.67;;;13.50;99.90;;;;;;6192884;23;20824;-89
2021/10/30 12:44:29;;;;;;;9.10;5.87;;;13.10;99.90;;;;;;6194576;23;20348;-90
2021/10/30 12:46:56;;;;;;;5.37;5.07;;;13.50;99.90;;;;;;6191925;23;20474;-88
2021/10/30 12:49:29;;;;;;;4.43;4.17;;;17.00;99.90;;;;;;6194272;23;20399;-88
2021/10/30 12:51:57;;;;;;;4.47;4.07;;;13.50;99.90;;;;;;6168730;23;20865;-89
2021/10/30 12:55:01;;;;;;;5.03;4.60;;;13.50;99.90;;;;;;6194902;23;20874;-89
2021/10/30 12:57:29;;;;;;;4.80;4.40;;;13.50;99.90;;;;;;6217526;23;20391;-89
2021/10/30 13:00:20;;;;;;;5.60;5.10;;;14.00;99.90;;;;;;6193258;23;20383;-89
2021/10/30 13:03:09;;;;;;;4.00;3.77;;;13.60;99.90;;;;;;6191876;23;20395;-89
2021/10/30 13:05:35;;;;;;;4.97;4.53;;;;;;;;;;6195106;23;20434;-88
2021/10/30 13:08:25;;;;;;;4.07;3.90;;;13.70;99.90;;;;;;6193724;23;20429;-90
2021/10/30 13:10:50;;;;;;;4.50;4.40;;;;;;;;;;6193684;23;20379;-90
2021/10/30 13:13:39;;;;;;;4.10;3.90;;;14.60;99.90;;;;;;6192288;23;20382;-89
2021/10/30 13:16:08;;;;;;;4.37;4.17;;;;;;;;;;6181168;23;20380;-89
2021/10/30 13:18:36;;;;;;;4.23;3.93;;;15.10;99.90;;;;;;6196505;23;20969;-87
2021/10/30 13:21:07;;;;;;;4.10;3.43;;;16.40;99.90;;;;;;6199189;23;20380;-90
2021/10/30 13:23:33;;;;;;;4.73;4.53;;;;;;;;;;6196698;23;20367;-90
2021/10/30 13:26:13;;;;;;;4.07;3.87;;;15.10;99.90;;;;;;6192676;23;20458;-89
2021/10/30 13:28:45;;;;;;;3.97;3.47;;;15.00;99.90;;;;;;6195274;23;20708;-89
2021/10/30 13:31:31;;;;;;;;;;;;;;;;;;;;;
2021/10/30 13:34:00;;;;;;;3.60;3.50;;;15.10;99.90;;;;;;6193322;23;20386;-88
2021/10/30 13:36:29;;;;;;;4.53;4.27;;;;;;;;;;6190211;23;20464;-89
2021/10/30 13:39:27;;;;;;;;;;;;;;;;;;;;;
2021/10/30 13:42:39;;;;;;;4.77;4.33;;;16.30;99.90;;;;;;6208974;23;20366;-92
2021/10/30 13:45:35;;;;;;;3.77;3.63;;;15.30;98.50;;;;;;6182375;23;20422;-93
2021/10/30 13:51:25;;;;;;;3.37;3.27;;;15.80;99.90;;;;;;6116143;23;20384;-91
2021/10/30 13:54:08;;;;;;;3.20;3.10;;;18.50;99.90;;;;;;6207271;23;20367;-92
2021/10/30 13:56:55;;;;;;;3.17;2.97;;;18.20;97.30;;;;;;6213343;23;20423;-90
2021/10/30 13:59:24;;;;;;;3.67;3.27;;;18.40;95.20;;;;;;6186629;23;20486;-91
2021/10/30 14:01:50;;;;;;;3.38;3.28;;;;;;;;;;6232460;23;20466;-92
2021/10/30 14:04:28;;;;;;;7.50;6.90;;;16.00;99.90;;;;;;6233279;23;20211;-92
2021/10/30 14:06:54;;;;;;;6.30;5.80;;;;;;;;;;6229700;23;20390;-92
2021/10/30 14:09:29;;;;;;;3.50;3.40;;;;;;;;;;6206437;23;20446;-93
2021/10/30 14:12:03;;;;;;;3.47;3.40;;;;;;;;;;6206726;23;20383;-91
2021/10/30 14:14:45;;;;;;;3.20;3.10;;;16.10;99.90;;;;;;6208800;23;20379;-94
2021/10/30 14:17:15;;;;;;;3.17;3.07;;;17.10;95.70;;;;;;6236279;23;20386;-96
2021/10/30 14:19:41;;;;;;;3.07;2.87;;;15.90;99.90;;;;;;6237245;23;20417;-92
2021/10/30 14:22:12;;;;;;;3.50;3.37;;;15.80;95.40;;;;;;6209018;23;20386;-93
2021/10/30 14:24:43;;;;;;;2.77;2.77;;;15.60;95.50;;;;;;6230022;23;20391;-92
2021/10/30 14:27:23;;;;;;;2.87;2.80;;;;;;;;;;6208918;23;20379;-90
2021/10/30 14:29:49;;;;;;;4.10;3.97;;;;;;;;;;6208985;23;20453;-95
2021/10/30 14:32:16;;;;;;;4.63;4.20;;;15.30;96.70;;;;;;6206466;23;20454;-92
2021/10/30 14:34:43;;;;;;;3.50;3.40;;;;;;;;;;6206995;23;20371;-93
2021/10/30 14:37:19;;;;;;;;;;;;;;;;;;;;;